地図

経路データ

SID SEASON NUMBER BASIN SUBBASIN NAME ISO_TIME NATURE LAT LON WMO_WIND WMO_PRES WMO_AGENCY TRACK_TYPE DIST2LAND LANDFALL IFLAG USA_AGENCY USA_ATCF_ID USA_LAT USA_LON USA_RECORD USA_STATUS USA_WIND USA_PRES USA_SSHS USA_R34_NE USA_R34_SE USA_R34_SW USA_R34_NW USA_R50_NE USA_R50_SE USA_R50_SW USA_R50_NW USA_R64_NE USA_R64_SE USA_R64_SW USA_R64_NW USA_POCI USA_ROCI USA_RMW USA_EYE TOKYO_LAT TOKYO_LON TOKYO_GRADE TOKYO_WIND TOKYO_PRES TOKYO_R50_DIR TOKYO_R50_LONG TOKYO_R50_SHORT TOKYO_R30_DIR TOKYO_R30_LONG TOKYO_R30_SHORT TOKYO_LAND CMA_LAT CMA_LON CMA_CAT CMA_WIND CMA_PRES HKO_LAT HKO_LON HKO_CAT HKO_WIND HKO_PRES NEWDELHI_LAT NEWDELHI_LON NEWDELHI_GRADE NEWDELHI_WIND NEWDELHI_PRES NEWDELHI_CI NEWDELHI_DP NEWDELHI_POCI REUNION_LAT REUNION_LON REUNION_TYPE REUNION_WIND REUNION_PRES REUNION_TNUM REUNION_CI REUNION_RMW REUNION_R34_NE REUNION_R34_SE REUNION_R34_SW REUNION_R34_NW REUNION_R50_NE REUNION_R50_SE REUNION_R50_SW REUNION_R50_NW REUNION_R64_NE REUNION_R64_SE REUNION_R64_SW REUNION_R64_NW BOM_LAT BOM_LON BOM_TYPE BOM_WIND BOM_PRES BOM_TNUM BOM_CI BOM_RMW BOM_R34_NE BOM_R34_SE BOM_R34_SW BOM_R34_NW BOM_R50_NE BOM_R50_SE BOM_R50_SW BOM_R50_NW BOM_R64_NE BOM_R64_SE BOM_R64_SW BOM_R64_NW BOM_ROCI BOM_POCI BOM_EYE BOM_POS_METHOD BOM_PRES_METHOD NADI_LAT NADI_LON NADI_CAT NADI_WIND NADI_PRES WELLINGTON_LAT WELLINGTON_LON WELLINGTON_WIND WELLINGTON_PRES DS824_LAT DS824_LON DS824_STAGE DS824_WIND DS824_PRES TD9636_LAT TD9636_LON TD9636_STAGE TD9636_WIND TD9636_PRES TD9635_LAT TD9635_LON TD9635_WIND TD9635_PRES TD9635_ROCI NEUMANN_LAT NEUMANN_LON NEUMANN_CLASS NEUMANN_WIND NEUMANN_PRES MLC_LAT MLC_LON MLC_CLASS MLC_WIND MLC_PRES USA_GUST BOM_GUST BOM_GUST_PER REUNION_GUST REUNION_GUST_PER USA_SEAHGT USA_SEARAD_NE USA_SEARAD_SE USA_SEARAD_SW USA_SEARAD_NW STORM_SPEED STORM_DIR
2020187N28270 2020 36 NA GM FAY 2020-07-04 18:00:00 NR 28.2000 -89.9000 PROVISIONAL 102 102 O_____________ nhc_working_bt AL062020 28.2000 -89.9000 DB 20 1013 -3 3 90
2020187N28270 2020 36 NA GM FAY 2020-07-04 21:00:00 NR 28.2001 -89.7050 PROVISIONAL 104 97 P_____________ AL062020 28.2001 -89.7050 DB 20 1013 -3 4 90
2020187N28270 2020 36 NA GM FAY 2020-07-05 00:00:00 NR 28.2000 -89.5000 PROVISIONAL 97 91 O_____________ nhc_working_bt AL062020 28.2000 -89.5000 DB 20 1013 -3 4 90
2020187N28270 2020 36 NA GM FAY 2020-07-05 03:00:00 NR 28.1999 -89.2725 PROVISIONAL 91 89 P_____________ AL062020 28.1999 -89.2725 DB 20 1013 -3 4 90
2020187N28270 2020 36 NA GM FAY 2020-07-05 06:00:00 NR 28.2000 -89.0000 PROVISIONAL 89 89 O_____________ nhc_working_bt AL062020 28.2000 -89.0000 DB 20 1013 -3 5 92
2020187N28270 2020 36 NA GM FAY 2020-07-05 09:00:00 NR 28.1849 -88.6798 PROVISIONAL 97 97 P_____________ AL062020 28.1849 -88.6798 DB 20 1012 -3 6 90
2020187N28270 2020 36 NA GM FAY 2020-07-05 12:00:00 DS 28.2000 -88.3000 PROVISIONAL 118 118 O_____________ nhc_working_bt AL062020 28.2000 -88.3000 LO 20 1012 -3 7 84
2020187N28270 2020 36 NA GM FAY 2020-07-05 15:00:00 DS 28.2546 -87.8945 PROVISIONAL 139 139 P_____________ AL062020 28.2546 -87.8945 LO 22 1011 -3 8 76
2020187N28270 2020 36 NA GM FAY 2020-07-05 18:00:00 DS 28.4000 -87.4000 PROVISIONAL 174 174 O_____________ nhc_working_bt AL062020 28.4000 -87.4000 LO 25 1010 -3 1014 90 40 11 69
2020187N28270 2020 36 NA GM FAY 2020-07-05 21:00:00 DS 28.6481 -86.7354 PROVISIONAL 175 103 P_____________ AL062020 28.6481 -86.7354 LO 27 1009 -3 1013 90 35 13 62
2020187N28270 2020 36 NA GM FAY 2020-07-06 00:00:00 DS 29.0000 -86.1000 PROVISIONAL 103 44 O_____________ nhc_working_bt AL062020 29.0000 -86.1000 LO 30 1008 -3 1012 90 30 12 50
2020187N28270 2020 36 NA GM FAY 2020-07-06 03:00:00 DS 29.4196 -85.6749 PROVISIONAL 44 0 P_____________ AL062020 29.4196 -85.6749 LO 30 1008 -3 1012 90 30 11 34
2020187N28270 2020 36 NA GM FAY 2020-07-06 06:00:00 DS 29.9000 -85.4000 PROVISIONAL 0 0 O_____________ nhc_working_bt AL062020 29.9000 -85.4000 LO 30 1009 -3 1012 90 30 11 21
2020187N28270 2020 36 NA NA FAY 2020-07-06 09:00:00 DS 30.4148 -85.2344 PROVISIONAL 0 0 P_____________ AL062020 30.4148 -85.2344 LO 25 1010 -3 1013 145 30 10 15
2020187N28270 2020 36 NA NA FAY 2020-07-06 12:00:00 DS 30.9000 -85.1000 PROVISIONAL 0 0 O_____________ nhc_working_bt AL062020 30.9000 -85.1000 LO 20 1011 -3 1014 200 30 9 20
2020187N28270 2020 36 NA NA FAY 2020-07-06 15:00:00 DS 31.2800 -84.8649 PROVISIONAL 0 0 P_____________ AL062020 31.2800 -84.8649 LO 20 1012 -3 1014 200 30 8 31
2020187N28270 2020 36 NA NA FAY 2020-07-06 18:00:00 DS 31.6000 -84.6000 PROVISIONAL 0 0 O_____________ nhc_working_bt AL062020 31.6000 -84.6000 LO 20 1013 -3 1015 200 30 8 36
2020187N28270 2020 36 NA NA FAY 2020-07-06 21:00:00 DS 31.9075 -84.3349 PROVISIONAL 0 0 P_____________ AL062020 31.9075 -84.3349 LO 20 1012 -3 1014 150 30 7 35
2020187N28270 2020 36 NA NA FAY 2020-07-07 00:00:00 DS 32.2000 -84.1000 PROVISIONAL 0 0 O_____________ nhc_working_bt AL062020 32.2000 -84.1000 LO 20 1012 -3 1014 100 30 7 29
2020187N28270 2020 36 NA NA FAY 2020-07-07 03:00:00 DS 32.5074 -83.9497 PROVISIONAL 0 0 P_____________ AL062020 32.5074 -83.9497 LO 20 1013 -3 1015 105 30 7 23
2020187N28270 2020 36 NA NA FAY 2020-07-07 06:00:00 DS 32.8000 -83.8000 PROVISIONAL 0 0 O_____________ nhc_working_bt AL062020 32.8000 -83.8000 LO 20 1014 -3 1016 110 30 7 28
2020187N28270 2020 36 NA NA FAY 2020-07-07 09:00:00 DS 33.0949 -83.5802 PROVISIONAL 0 0 P_____________ AL062020 33.0949 -83.5802 LO 20 1014 -3 1016 105 30 7 40
2020187N28270 2020 36 NA NA FAY 2020-07-07 12:00:00 DS 33.3000 -83.3000 PROVISIONAL 0 0 O_____________ nhc_working_bt AL062020 33.3000 -83.3000 LO 20 1014 -3 1016 100 30 6 64
2020187N28270 2020 36 NA NA FAY 2020-07-07 15:00:00 DS 33.3373 -82.9872 PROVISIONAL 0 0 P_____________ AL062020 33.3373 -82.9872 LO 20 1014 -3 1016 100 30 6 90
2020187N28270 2020 36 NA NA FAY 2020-07-07 18:00:00 DS 33.3000 -82.6000 PROVISIONAL 0 0 O_____________ nhc_working_bt AL062020 33.3000 -82.6000 LO 20 1014 -3 1016 100 30 30 7 93
2020187N28270 2020 36 NA NA FAY 2020-07-07 21:00:00 DS 33.2999 -82.1300 PROVISIONAL 0 0 P_____________ AL062020 33.2999 -82.1300 LO 20 1013 -3 1016 100 30 8 90
2020187N28270 2020 36 NA NA FAY 2020-07-08 00:00:00 DS 33.3000 -81.6000 PROVISIONAL 0 0 O_____________ nhc_working_bt AL062020 33.3000 -81.6000 LO 20 1013 -3 1016 100 30 30 9 90
2020187N28270 2020 36 NA NA FAY 2020-07-08 03:00:00 DS 33.2996 -81.0725 PROVISIONAL 0 0 P_____________ AL062020 33.2996 -81.0725 LO 20 1012 -3 1016 100 30 9 90
2020187N28270 2020 36 NA NA FAY 2020-07-08 06:00:00 DS 33.3000 -80.5000 PROVISIONAL 0 0 O_____________ nhc_working_bt AL062020 33.3000 -80.5000 LO 20 1012 -3 1016 100 30 10 92
2020187N28270 2020 36 NA NA FAY 2020-07-08 09:00:00 DS 33.2699 -79.8643 PROVISIONAL 0 0 P_____________ AL062020 33.2699 -79.8643 LO 20 1011 -3 1015 140 65 11 90
2020187N28270 2020 36 NA NA FAY 2020-07-08 12:00:00 DS 33.3000 -79.2000 PROVISIONAL 0 0 O_____________ nhc_working_bt AL062020 33.3000 -79.2000 LO 20 1011 -3 1015 180 100 30 11 79
2020187N28270 2020 36 NA NA FAY 2020-07-08 15:00:00 DS 33.4852 -78.5134 PROVISIONAL 43 22 P_____________ AL062020 33.4852 -78.5134 LO 22 1010 -3 1014 190 110 12 70
2020187N28270 2020 36 NA NA FAY 2020-07-08 18:00:00 DS 33.7000 -77.9000 PROVISIONAL 24 24 O_____________ nhc_working_bt AL062020 33.7000 -77.9000 LO 25 1010 -3 1014 200 120 35 10 70
2020187N28270 2020 36 NA NA FAY 2020-07-08 21:00:00 DS 33.8147 -77.4246 PROVISIONAL 56 56 P_____________ AL062020 33.8147 -77.4246 LO 25 1009 -3 1014 200 110 7 73
2020187N28270 2020 36 NA NA FAY 2020-07-09 00:00:00 DS 33.9000 -77.1000 PROVISIONAL 70 66 O_____________ nhc_working_bt AL062020 33.9000 -77.1000 LO 25 1009 -3 1014 200 100 35 5 66
2020187N28270 2020 36 NA NA FAY 2020-07-09 03:00:00 DS 34.0148 -76.8899 PROVISIONAL 72 66 P_____________ AL062020 34.0148 -76.8899 LO 25 1008 -3 1014 200 100 3 51
2020187N28270 2020 36 NA NA FAY 2020-07-09 06:00:00 DS 34.1000 -76.8000 PROVISIONAL 66 63 O_____________ nhc_working_bt AL062020 34.1000 -76.8000 LO 25 1008 -3 1014 200 100 35 0 0
2020187N28270 2020 36 NA NA FAY 2020-07-09 09:00:00 DS 34.0163 -76.9176 PROVISIONAL 72 63 P_____________ AL062020 34.0163 -76.9176 LO 27 1007 -3 1013 205 110 0 0
2020187N28270 2020 36 NA NA FAY 2020-07-09 12:00:00 DS 34.1000 -76.8000 PROVISIONAL 66 34 O_____________ nhc_working_bt AL062020 34.1000 -76.8000 LO 30 1007 -3 1012 210 120 35 11 51
2020187N28270 2020 36 NA NA FAY 2020-07-09 15:00:00 DS 34.7161 -75.8644 PROVISIONAL 42 42 P_____________ AL062020 34.7161 -75.8644 LO 35 1006 -3 40 60 1011 210 85 20 50
2020187N28270 2020 36 NA NA FAY 2020-07-09 18:00:00 TS 35.4000 -74.9000 PROVISIONAL 70 66 O_____________ nhc_working_bt AL062020 35.4000 -74.9000 TS 40 1005 0 80 120 1010 210 50 50 13 44
2020187N28270 2020 36 NA NA FAY 2020-07-09 21:00:00 TS 35.6431 -74.7713 PROVISIONAL 66 62 P_____________ AL062020 35.6787 -74.7048 TS 40 1005 0 90 120 1010 210 50 5 9
2020187N28270 2020 36 NA NA FAY 2020-07-10 00:00:00 TS 35.9000 -74.8000 PROVISIONAL 63 63 O_____________ nhc_working_bt AL062020 35.9000 -74.8000 TS 40 1005 0 100 120 1010 210 50 50 12 90 90 7 0
2020187N28270 2020 36 NA NA FAY 2020-07-10 03:00:00 TS 36.3275 -74.7998 PROVISIONAL 79 79 P_____________ AL062020 36.3275 -74.7998 TS 42 1005 0 110 120 1010 195 55 12 105 105 9 0
2020187N28270 2020 36 NA NA FAY 2020-07-10 06:00:00 TS 36.8000 -74.8000 PROVISIONAL 99 91 O_____________ nhc_working_bt AL062020 36.8000 -74.8000 TS 45 1005 0 120 120 1010 180 60 55 12 120 120 8 0
2020187N28270 2020 36 NA NA FAY 2020-07-10 09:00:00 TS 37.1700 -74.7721 PROVISIONAL 86 73 P_____________ AL062020 37.1700 -74.7721 TS 45 1001 0 120 120 1010 180 60 12 120 120 8 6
2020187N28270 2020 36 NA NA FAY 2020-07-10 12:00:00 TS 37.6000 -74.7000 PROVISIONAL 73 44 O_____________ nhc_working_bt AL062020 37.6000 -74.7000 TS 45 998 0 120 120 70 1011 180 60 55 12 120 120 11 10
2020187N28270 2020 36 NA NA FAY 2020-07-10 15:00:00 TS 38.2126 -74.5507 PROVISIONAL 44 34 P_____________ AL062020 38.2126 -74.5507 TS 47 998 0 120 120 55 1010 165 75 12 120 150 13 10
2020187N28270 2020 36 NA NA FAY 2020-07-10 18:00:00 TS 38.9000 -74.4000 PROVISIONAL 34 0 O_____________ nhc_working_bt AL062020 38.9000 -74.4000 TS 50 998 0 120 120 40 40 60 1010 150 90 60 12 120 180 90 14 7
2020187N28270 2020 36 NA NA FAY 2020-07-10 21:00:00 TS 39.5500 -74.3345 PROVISIONAL 0 0 P_____________ AL062020 39.5500 -74.3345 TS 42 999 0 120 120 1009 150 90 12 110 170 80 13 4
2020187N28270 2020 36 NA NA FAY 2020-07-11 00:00:00 TS 40.2000 -74.3000 PROVISIONAL 0 0 O_____________ nhc_working_bt AL062020 40.2000 -74.3000 TS 35 1000 0 120 120 1008 150 90 45 12 100 160 70 13 3
2020187N28270 2020 36 NA NA FAY 2020-07-11 03:00:00 TS 40.8500 -74.2554 PROVISIONAL 0 0 P_____________ AL062020 40.8500 -74.2554 TS 32 1000 -1 1007 135 90 13 4
2020187N28270 2020 36 NA NA FAY 2020-07-11 06:00:00 DS 41.5000 -74.2000 PROVISIONAL 0 O_____________ nhc_working_bt AL062020 41.5000 -74.2000 LO 30 1001 -3 1006 120 90 40 13 4

IBTrACS Databaseについて

本データベースは、米国NOAAが公開する1842年以降の世界の熱帯低気圧のベストトラックデータアーカイブInternational Best Track Archive for Climate Stewardship (IBTrACS)を、ウェブで閲覧しやすい形式に変換したものです。

最終更新日:2021-12-03